sensor_id;sensor_type;location;lat;lon;timestamp;pressure;altitude;pressure_sealevel;temperature;humidity
81243;BME280;70716;50.074;14.496;2023-12-22T00:01:47;96600.09;;;4.65;64.60
81243;BME280;70716;50.074;14.496;2023-12-22T00:04:12;96592.13;;;4.69;64.71
81243;BME280;70716;50.074;14.496;2023-12-22T00:06:40;96594.72;;;4.65;64.98
81243;BME280;70716;50.074;14.496;2023-12-22T00:09:06;96601.91;;;4.61;65.78
81243;BME280;70716;50.074;14.496;2023-12-22T00:11:31;96601.22;;;4.64;65.81
81243;BME280;70716;50.074;14.496;2023-12-22T00:13:57;96601.91;;;4.61;66.20
81243;BME280;70716;50.074;14.496;2023-12-22T00:16:25;96609.56;;;4.59;66.44
81243;BME280;70716;50.074;14.496;2023-12-22T00:18:51;96605.72;;;4.60;66.36
81243;BME280;70716;50.074;14.496;2023-12-22T00:21:17;96604.72;;;4.64;65.76
81243;BME280;70716;50.074;14.496;2023-12-22T00:23:43;96610.00;;;4.61;66.78
81243;BME280;70716;50.074;14.496;2023-12-22T00:26:09;96593.03;;;4.60;66.90
81243;BME280;70716;50.074;14.496;2023-12-22T00:28:35;96594.25;;;4.63;66.02
81243;BME280;70716;50.074;14.496;2023-12-22T00:31:00;96607.19;;;4.57;66.50
81243;BME280;70716;50.074;14.496;2023-12-22T00:33:25;96601.78;;;4.57;66.69
81243;BME280;70716;50.074;14.496;2023-12-22T00:35:51;96597.06;;;4.54;67.38
81243;BME280;70716;50.074;14.496;2023-12-22T00:38:17;96607.06;;;4.54;67.78
81243;BME280;70716;50.074;14.496;2023-12-22T00:40:42;96610.09;;;4.52;67.56
81243;BME280;70716;50.074;14.496;2023-12-22T00:43:07;96614.03;;;4.55;67.31
81243;BME280;70716;50.074;14.496;2023-12-22T00:45:33;96622.97;;;4.47;67.63
81243;BME280;70716;50.074;14.496;2023-12-22T00:47:58;96613.50;;;4.41;67.06
81243;BME280;70716;50.074;14.496;2023-12-22T00:50:24;96607.13;;;4.24;67.45
81243;BME280;70716;50.074;14.496;2023-12-22T00:52:49;96619.88;;;4.15;68.26
81243;BME280;70716;50.074;14.496;2023-12-22T00:55:14;96620.09;;;4.10;68.42
81243;BME280;70716;50.074;14.496;2023-12-22T00:57:40;96618.03;;;4.07;68.62
81243;BME280;70716;50.074;14.496;2023-12-22T01:00:06;96628.31;;;4.14;67.20
81243;BME280;70716;50.074;14.496;2023-12-22T01:02:35;96630.22;;;4.13;66.54
81243;BME280;70716;50.074;14.496;2023-12-22T01:05:01;96637.50;;;4.13;66.96
81243;BME280;70716;50.074;14.496;2023-12-22T01:07:26;96643.69;;;4.13;66.99
81243;BME280;70716;50.074;14.496;2023-12-22T01:09:51;96637.38;;;4.09;66.48
81243;BME280;70716;50.074;14.496;2023-12-22T01:12:17;96632.72;;;4.18;65.81
81243;BME280;70716;50.074;14.496;2023-12-22T01:14:42;96646.13;;;4.27;65.94
81243;BME280;70716;50.074;14.496;2023-12-22T01:17:10;96653.56;;;4.30;66.19
81243;BME280;70716;50.074;14.496;2023-12-22T01:19:35;96651.84;;;4.25;66.29
81243;BME280;70716;50.074;14.496;2023-12-22T01:22:01;96659.28;;;4.28;66.01
81243;BME280;70716;50.074;14.496;2023-12-22T01:24:26;96662.13;;;4.32;65.87
81243;BME280;70716;50.074;14.496;2023-12-22T01:26:51;96663.56;;;4.29;66.33
81243;BME280;70716;50.074;14.496;2023-12-22T01:29:17;96661.78;;;4.34;66.04
81243;BME280;70716;50.074;14.496;2023-12-22T01:31:42;96664.63;;;4.37;66.34
81243;BME280;70716;50.074;14.496;2023-12-22T01:34:08;96664.63;;;4.37;66.30
81243;BME280;70716;50.074;14.496;2023-12-22T01:36:34;96667.97;;;4.34;66.21
81243;BME280;70716;50.074;14.496;2023-12-22T01:38:59;96667.66;;;4.36;66.86
81243;BME280;70716;50.074;14.496;2023-12-22T01:41:25;96679.41;;;4.31;66.86
81243;BME280;70716;50.074;14.496;2023-12-22T01:43:50;96665.38;;;4.17;67.14
81243;BME280;70716;50.074;14.496;2023-12-22T01:46:16;96681.44;;;4.13;67.76
81243;BME280;70716;50.074;14.496;2023-12-22T01:48:45;96672.56;;;4.13;67.86
81243;BME280;70716;50.074;14.496;2023-12-22T01:51:14;96675.75;;;4.06;67.26
81243;BME280;70716;50.074;14.496;2023-12-22T01:53:39;96667.69;;;4.06;68.32
81243;BME280;70716;50.074;14.496;2023-12-22T01:56:06;96667.03;;;4.09;67.61
81243;BME280;70716;50.074;14.496;2023-12-22T01:58:36;96662.41;;;4.10;68.41
81243;BME280;70716;50.074;14.496;2023-12-22T02:01:03;96660.19;;;4.12;67.56
81243;BME280;70716;50.074;14.496;2023-12-22T02:03:33;96668.13;;;4.08;67.99
81243;BME280;70716;50.074;14.496;2023-12-22T02:05:58;96663.53;;;4.09;67.65
81243;BME280;70716;50.074;14.496;2023-12-22T02:08:25;96672.63;;;4.04;67.62
81243;BME280;70716;50.074;14.496;2023-12-22T02:10:51;96681.84;;;4.03;67.01
81243;BME280;70716;50.074;14.496;2023-12-22T02:13:19;96661.50;;;4.06;67.09
81243;BME280;70716;50.074;14.496;2023-12-22T02:15:47;96660.91;;;4.00;66.53
81243;BME280;70716;50.074;14.496;2023-12-22T02:18:22;96654.97;;;3.86;67.29
81243;BME280;70716;50.074;14.496;2023-12-22T02:20:50;96660.88;;;3.79;66.78
81243;BME280;70716;50.074;14.496;2023-12-22T02:23:17;96645.88;;;3.70;67.81
81243;BME280;70716;50.074;14.496;2023-12-22T02:25:42;96665.72;;;3.56;68.04
81243;BME280;70716;50.074;14.496;2023-12-22T02:28:10;96661.84;;;3.45;68.75
81243;BME280;70716;50.074;14.496;2023-12-22T02:30:56;96663.78;;;3.36;68.50
81243;BME280;70716;50.074;14.496;2023-12-22T02:33:29;96659.97;;;3.37;68.15
81243;BME280;70716;50.074;14.496;2023-12-22T02:36:03;96669.44;;;3.43;67.94
81243;BME280;70716;50.074;14.496;2023-12-22T02:38:30;96671.06;;;3.36;67.97
81243;BME280;70716;50.074;14.496;2023-12-22T02:40:56;96665.69;;;3.27;68.32
81243;BME280;70716;50.074;14.496;2023-12-22T02:43:25;96660.78;;;3.29;68.42
81243;BME280;70716;50.074;14.496;2023-12-22T02:45:51;96661.13;;;3.27;67.84
81243;BME280;70716;50.074;14.496;2023-12-22T02:48:16;96660.00;;;3.28;68.44
81243;BME280;70716;50.074;14.496;2023-12-22T02:50:46;96654.94;;;3.27;67.67
81243;BME280;70716;50.074;14.496;2023-12-22T02:53:11;96664.63;;;3.19;67.58
81243;BME280;70716;50.074;14.496;2023-12-22T02:55:41;96675.72;;;3.09;68.36
81243;BME280;70716;50.074;14.496;2023-12-22T02:58:06;96670.34;;;3.01;68.96
81243;BME280;70716;50.074;14.496;2023-12-22T03:00:31;96667.97;;;3.08;68.96
81243;BME280;70716;50.074;14.496;2023-12-22T03:02:57;96664.50;;;3.07;68.40
81243;BME280;70716;50.074;14.496;2023-12-22T03:05:22;96660.69;;;3.08;68.51
81243;BME280;70716;50.074;14.496;2023-12-22T03:07:47;96669.41;;;2.96;68.71
81243;BME280;70716;50.074;14.496;2023-12-22T03:10:13;96660.13;;;2.85;69.06
81243;BME280;70716;50.074;14.496;2023-12-22T03:12:38;96659.50;;;2.88;68.20
81243;BME280;70716;50.074;14.496;2023-12-22T03:15:04;96673.91;;;2.75;68.38
81243;BME280;70716;50.074;14.496;2023-12-22T03:17:33;96664.09;;;2.71;68.92
81243;BME280;70716;50.074;14.496;2023-12-22T03:19:58;96675.66;;;2.71;68.74
81243;BME280;70716;50.074;14.496;2023-12-22T03:22:24;96672.31;;;2.65;68.34
81243;BME280;70716;50.074;14.496;2023-12-22T03:24:49;96675.81;;;2.57;68.89
81243;BME280;70716;50.074;14.496;2023-12-22T03:27:15;96680.22;;;2.62;68.24
81243;BME280;70716;50.074;14.496;2023-12-22T03:29:43;96676.59;;;2.58;68.14
81243;BME280;70716;50.074;14.496;2023-12-22T03:32:08;96697.16;;;2.54;68.47
81243;BME280;70716;50.074;14.496;2023-12-22T03:34:34;96682.75;;;2.58;68.15
81243;BME280;70716;50.074;14.496;2023-12-22T03:36:59;96687.19;;;2.54;67.96
81243;BME280;70716;50.074;14.496;2023-12-22T03:39:24;96697.78;;;2.59;67.69
81243;BME280;70716;50.074;14.496;2023-12-22T03:41:50;96687.81;;;2.69;67.77
81243;BME280;70716;50.074;14.496;2023-12-22T03:44:15;96678.81;;;2.64;66.79
81243;BME280;70716;50.074;14.496;2023-12-22T03:46:41;96685.78;;;2.74;66.50
81243;BME280;70716;50.074;14.496;2023-12-22T03:49:06;96676.13;;;2.73;66.93
81243;BME280;70716;50.074;14.496;2023-12-22T03:51:31;96678.03;;;2.64;67.44
81243;BME280;70716;50.074;14.496;2023-12-22T03:53:57;96672.16;;;2.62;67.31
81243;BME280;70716;50.074;14.496;2023-12-22T03:56:25;96684.81;;;2.61;67.63
81243;BME280;70716;50.074;14.496;2023-12-22T03:58:51;96689.25;;;2.66;67.41
81243;BME280;70716;50.074;14.496;2023-12-22T04:01:16;96686.25;;;2.76;66.09
81243;BME280;70716;50.074;14.496;2023-12-22T04:03:42;96681.59;;;2.94;65.80
81243;BME280;70716;50.074;14.496;2023-12-22T04:06:07;96676.69;;;3.05;65.49
81243;BME280;70716;50.074;14.496;2023-12-22T04:08:36;96672.25;;;3.00;66.00
81243;BME280;70716;50.074;14.496;2023-12-22T04:11:01;96668.31;;;2.97;66.03
81243;BME280;70716;50.074;14.496;2023-12-22T04:13:30;96653.63;;;2.86;66.10
81243;BME280;70716;50.074;14.496;2023-12-22T04:15:56;96650.81;;;2.74;67.27
81243;BME280;70716;50.074;14.496;2023-12-22T04:18:21;96653.19;;;2.67;66.47
81243;BME280;70716;50.074;14.496;2023-12-22T04:20:46;96660.47;;;2.58;66.50
81243;BME280;70716;50.074;14.496;2023-12-22T04:23:14;96666.31;;;2.51;67.27
81243;BME280;70716;50.074;14.496;2023-12-22T04:25:40;96668.69;;;2.53;67.02
81243;BME280;70716;50.074;14.496;2023-12-22T04:28:05;96654.63;;;2.56;68.07
81243;BME280;70716;50.074;14.496;2023-12-22T04:30:31;96661.09;;;2.55;67.75
81243;BME280;70716;50.074;14.496;2023-12-22T04:32:56;96651.59;;;2.49;68.11
81243;BME280;70716;50.074;14.496;2023-12-22T04:35:21;96659.03;;;2.52;68.37
81243;BME280;70716;50.074;14.496;2023-12-22T04:37:47;96662.69;;;2.64;68.22
81243;BME280;70716;50.074;14.496;2023-12-22T04:40:15;96654.91;;;2.72;67.86
81243;BME280;70716;50.074;14.496;2023-12-22T04:42:41;96657.13;;;2.70;68.35
81243;BME280;70716;50.074;14.496;2023-12-22T04:45:08;96657.94;;;2.61;68.84
81243;BME280;70716;50.074;14.496;2023-12-22T04:47:37;96641.16;;;2.64;68.10
81243;BME280;70716;50.074;14.496;2023-12-22T04:50:02;96656.03;;;2.79;70.21
81243;BME280;70716;50.074;14.496;2023-12-22T04:52:27;96649.53;;;2.80;68.64
81243;BME280;70716;50.074;14.496;2023-12-22T04:54:55;96652.38;;;2.84;69.20
81243;BME280;70716;50.074;14.496;2023-12-22T04:57:21;96648.25;;;2.78;68.46
81243;BME280;70716;50.074;14.496;2023-12-22T04:59:47;96646.69;;;2.59;69.75
81243;BME280;70716;50.074;14.496;2023-12-22T05:02:14;96654.63;;;2.47;69.80
81243;BME280;70716;50.074;14.496;2023-12-22T05:04:39;96652.72;;;2.56;69.34
81243;BME280;70716;50.074;14.496;2023-12-22T05:07:05;96660.16;;;2.68;69.33
81243;BME280;70716;50.074;14.496;2023-12-22T05:09:33;96662.97;;;2.80;69.32
81243;BME280;70716;50.074;14.496;2023-12-22T05:11:59;96666.63;;;2.84;69.68
81243;BME280;70716;50.074;14.496;2023-12-22T05:14:24;96675.91;;;2.95;69.69
81243;BME280;70716;50.074;14.496;2023-12-22T05:16:53;96671.59;;;3.12;68.24
81243;BME280;70716;50.074;14.496;2023-12-22T05:19:21;96689.00;;;3.23;68.51
81243;BME280;70716;50.074;14.496;2023-12-22T05:21:46;96697.22;;;3.26;68.49
81243;BME280;70716;50.074;14.496;2023-12-22T05:24:14;96701.63;;;3.31;69.06
81243;BME280;70716;50.074;14.496;2023-12-22T05:26:40;96697.34;;;3.39;70.19
81243;BME280;70716;50.074;14.496;2023-12-22T05:29:05;96692.44;;;3.41;70.63
81243;BME280;70716;50.074;14.496;2023-12-22T05:31:33;96691.00;;;3.43;72.12
81243;BME280;70716;50.074;14.496;2023-12-22T05:33:59;96700.50;;;3.41;73.09
81243;BME280;70716;50.074;14.496;2023-12-22T05:36:25;96701.94;;;3.38;74.99
81243;BME280;70716;50.074;14.496;2023-12-22T05:38:54;96706.22;;;3.30;76.08
81243;BME280;70716;50.074;14.496;2023-12-22T05:41:20;96718.44;;;3.19;77.17
81243;BME280;70716;50.074;14.496;2023-12-22T05:43:45;96701.38;;;3.07;78.16
81243;BME280;70716;50.074;14.496;2023-12-22T05:46:11;96708.50;;;3.03;78.43
81243;BME280;70716;50.074;14.496;2023-12-22T05:48:36;96708.66;;;2.97;79.48
81243;BME280;70716;50.074;14.496;2023-12-22T05:51:02;96713.56;;;2.95;79.80
81243;BME280;70716;50.074;14.496;2023-12-22T05:53:29;96722.16;;;2.72;80.63
81243;BME280;70716;50.074;14.496;2023-12-22T05:55:58;96725.47;;;2.69;80.76
81243;BME280;70716;50.074;14.496;2023-12-22T05:58:25;96717.09;;;2.61;80.88
81243;BME280;70716;50.074;14.496;2023-12-22T06:00:50;96718.03;;;2.65;80.85
81243;BME280;70716;50.074;14.496;2023-12-22T06:03:16;96716.16;;;2.66;80.47
81243;BME280;70716;50.074;14.496;2023-12-22T06:05:41;96729.75;;;2.61;80.13
81243;BME280;70716;50.074;14.496;2023-12-22T06:08:06;96734.34;;;2.69;78.63
81243;BME280;70716;50.074;14.496;2023-12-22T06:10:35;96734.66;;;2.85;77.61
81243;BME280;70716;50.074;14.496;2023-12-22T06:13:01;96731.94;;;2.93;76.56
81243;BME280;70716;50.074;14.496;2023-12-22T06:15:28;96726.38;;;2.98;75.30
81243;BME280;70716;50.074;14.496;2023-12-22T06:17:56;96726.22;;;2.95;75.26
81243;BME280;70716;50.074;14.496;2023-12-22T06:20:26;96724.34;;;2.95;74.28
81243;BME280;70716;50.074;14.496;2023-12-22T06:22:51;96738.25;;;2.89;74.29
81243;BME280;70716;50.074;14.496;2023-12-22T06:25:17;96737.81;;;2.87;74.27
81243;BME280;70716;50.074;14.496;2023-12-22T06:27:42;96724.81;;;2.89;74.06
81243;BME280;70716;50.074;14.496;2023-12-22T06:30:08;96725.44;;;2.94;73.80
81243;BME280;70716;50.074;14.496;2023-12-22T06:32:33;96727.06;;;2.87;73.51
81243;BME280;70716;50.074;14.496;2023-12-22T06:34:59;96734.66;;;2.85;73.60
81243;BME280;70716;50.074;14.496;2023-12-22T06:37:25;96725.78;;;2.76;73.70
81243;BME280;70716;50.074;14.496;2023-12-22T06:39:52;96756.47;;;2.66;75.17
81243;BME280;70716;50.074;14.496;2023-12-22T06:42:17;96738.75;;;2.56;76.46
81243;BME280;70716;50.074;14.496;2023-12-22T06:44:43;96742.72;;;2.59;77.19
81243;BME280;70716;50.074;14.496;2023-12-22T06:47:10;96746.34;;;2.54;78.06
81243;BME280;70716;50.074;14.496;2023-12-22T06:49:36;96742.25;;;2.57;79.08
81243;BME280;70716;50.074;14.496;2023-12-22T06:52:03;96737.31;;;2.50;80.09
81243;BME280;70716;50.074;14.496;2023-12-22T06:54:29;96746.63;;;2.36;81.32
81243;BME280;70716;50.074;14.496;2023-12-22T06:56:55;96753.59;;;2.19;82.19
81243;BME280;70716;50.074;14.496;2023-12-22T06:59:21;96760.31;;;1.99;83.08
81243;BME280;70716;50.074;14.496;2023-12-22T07:01:49;96756.94;;;1.85;84.06
81243;BME280;70716;50.074;14.496;2023-12-22T07:04:18;96760.69;;;1.76;84.57
81243;BME280;70716;50.074;14.496;2023-12-22T07:06:44;96762.13;;;1.73;84.82
81243;BME280;70716;50.074;14.496;2023-12-22T07:11:51;96762.88;;;1.65;84.25
81243;BME280;70716;50.074;14.496;2023-12-22T07:14:20;96773.50;;;1.70;84.32
81243;BME280;70716;50.074;14.496;2023-12-22T07:16:45;96765.59;;;1.74;83.90
81243;BME280;70716;50.074;14.496;2023-12-22T07:19:11;96765.28;;;1.75;83.62
81243;BME280;70716;50.074;14.496;2023-12-22T07:21:41;96758.00;;;1.76;83.21
81243;BME280;70716;50.074;14.496;2023-12-22T07:24:08;96763.38;;;1.67;83.15
81243;BME280;70716;50.074;14.496;2023-12-22T07:26:33;96772.97;;;1.59;82.49
81243;BME280;70716;50.074;14.496;2023-12-22T07:28:59;96773.63;;;1.65;82.70
81243;BME280;70716;50.074;14.496;2023-12-22T07:31:24;96775.38;;;1.70;81.93
81243;BME280;70716;50.074;14.496;2023-12-22T07:33:53;96776.97;;;1.79;81.38
81243;BME280;70716;50.074;14.496;2023-12-22T07:36:19;96770.44;;;2.03;79.61
81243;BME280;70716;50.074;14.496;2023-12-22T07:38:46;96778.22;;;2.13;78.39
81243;BME280;70716;50.074;14.496;2023-12-22T07:41:12;96780.00;;;2.26;78.39
81243;BME280;70716;50.074;14.496;2023-12-22T07:43:37;96770.03;;;2.35;77.92
81243;BME280;70716;50.074;14.496;2023-12-22T07:46:07;96790.91;;;2.38;77.28
81243;BME280;70716;50.074;14.496;2023-12-22T07:48:34;96784.13;;;2.49;76.23
81243;BME280;70716;50.074;14.496;2023-12-22T07:50:59;96775.13;;;2.54;75.54
81243;BME280;70716;50.074;14.496;2023-12-22T07:53:28;96776.09;;;2.58;75.51
81243;BME280;70716;50.074;14.496;2023-12-22T07:55:57;96786.25;;;2.78;74.55
81243;BME280;70716;50.074;14.496;2023-12-22T07:58:24;96782.41;;;3.14;72.75
81243;BME280;70716;50.074;14.496;2023-12-22T08:00:49;96783.81;;;3.37;71.98
81243;BME280;70716;50.074;14.496;2023-12-22T08:03:15;96780.59;;;3.52;70.99
81243;BME280;70716;50.074;14.496;2023-12-22T08:05:40;96783.44;;;3.56;70.33
81243;BME280;70716;50.074;14.496;2023-12-22T08:08:05;96790.41;;;3.57;70.44
81243;BME280;70716;50.074;14.496;2023-12-22T08:10:31;96786.72;;;3.70;69.39
81243;BME280;70716;50.074;14.496;2023-12-22T08:12:56;96789.38;;;3.87;69.06
81243;BME280;70716;50.074;14.496;2023-12-22T08:15:24;96786.84;;;3.91;68.83
81243;BME280;70716;50.074;14.496;2023-12-22T08:17:52;96804.25;;;3.93;68.70
81243;BME280;70716;50.074;14.496;2023-12-22T08:20:18;96800.13;;;3.96;69.03
81243;BME280;70716;50.074;14.496;2023-12-22T08:22:47;96805.34;;;4.01;68.66
81243;BME280;70716;50.074;14.496;2023-12-22T08:25:16;96809.41;;;4.07;68.91
81243;BME280;70716;50.074;14.496;2023-12-22T08:27:46;96802.59;;;4.10;68.27
81243;BME280;70716;50.074;14.496;2023-12-22T08:30:12;96793.25;;;4.07;68.46
81243;BME280;70716;50.074;14.496;2023-12-22T08:32:38;96804.72;;;3.95;68.45
81243;BME280;70716;50.074;14.496;2023-12-22T08:35:08;96827.41;;;3.94;68.44
81243;BME280;70716;50.074;14.496;2023-12-22T08:37:33;96842.97;;;3.80;70.84
81243;BME280;70716;50.074;14.496;2023-12-22T08:39:59;96863.16;;;3.31;76.06
81243;BME280;70716;50.074;14.496;2023-12-22T08:42:25;96862.34;;;3.05;78.53
81243;BME280;70716;50.074;14.496;2023-12-22T08:44:51;96867.75;;;2.87;79.95
81243;BME280;70716;50.074;14.496;2023-12-22T08:47:17;96869.28;;;2.71;81.30
81243;BME280;70716;50.074;14.496;2023-12-22T08:49:42;96851.09;;;2.68;81.95
81243;BME280;70716;50.074;14.496;2023-12-22T08:52:08;96844.25;;;2.53;82.26
81243;BME280;70716;50.074;14.496;2023-12-22T08:54:33;96855.78;;;2.45;83.59
81243;BME280;70716;50.074;14.496;2023-12-22T08:57:00;96870.63;;;2.43;84.27
81243;BME280;70716;50.074;14.496;2023-12-22T08:59:26;96862.97;;;2.19;84.25
81243;BME280;70716;50.074;14.496;2023-12-22T09:01:51;96874.34;;;2.16;85.03
81243;BME280;70716;50.074;14.496;2023-12-22T09:04:17;96897.41;;;2.17;85.55
81243;BME280;70716;50.074;14.496;2023-12-22T09:06:42;96889.66;;;2.15;84.68
81243;BME280;70716;50.074;14.496;2023-12-22T09:09:08;96898.97;;;2.09;84.74
81243;BME280;70716;50.074;14.496;2023-12-22T09:11:35;96886.84;;;1.89;84.51
81243;BME280;70716;50.074;14.496;2023-12-22T09:14:01;96892.59;;;1.74;84.93
81243;BME280;70716;50.074;14.496;2023-12-22T09:16:26;96887.19;;;1.65;85.95
81243;BME280;70716;50.074;14.496;2023-12-22T09:18:51;96887.63;;;1.59;86.22
81243;BME280;70716;50.074;14.496;2023-12-22T09:21:20;96878.47;;;1.60;86.82
81243;BME280;70716;50.074;14.496;2023-12-22T09:23:48;96884.50;;;1.65;87.37
81243;BME280;70716;50.074;14.496;2023-12-22T09:26:15;96884.09;;;1.81;86.98
81243;BME280;70716;50.074;14.496;2023-12-22T09:28:42;96894.94;;;1.98;86.97
81243;BME280;70716;50.074;14.496;2023-12-22T09:32:44;96886.72;;;2.34;86.54
81243;BME280;70716;50.074;14.496;2023-12-22T09:35:09;96897.38;;;2.48;86.93
81243;BME280;70716;50.074;14.496;2023-12-22T09:37:35;96874.84;;;2.83;85.50
81243;BME280;70716;50.074;14.496;2023-12-22T09:40:00;96868.88;;;3.21;83.74
81243;BME280;70716;50.074;14.496;2023-12-22T09:42:25;96860.00;;;3.12;83.09
81243;BME280;70716;50.074;14.496;2023-12-22T09:44:53;96867.91;;;3.17;81.70
81243;BME280;70716;50.074;14.496;2023-12-22T09:47:19;96864.41;;;3.08;82.40
81243;BME280;70716;50.074;14.496;2023-12-22T09:49:46;96871.56;;;3.21;80.66
81243;BME280;70716;50.074;14.496;2023-12-22T09:52:13;96875.53;;;3.32;78.72
81243;BME280;70716;50.074;14.496;2023-12-22T09:54:39;96871.41;;;3.43;77.62
81243;BME280;70716;50.074;14.496;2023-12-22T09:57:05;96879.28;;;3.57;76.16
81243;BME280;70716;50.074;14.496;2023-12-22T09:59:32;96875.94;;;3.69;75.08
81243;BME280;70716;50.074;14.496;2023-12-22T10:01:59;96858.81;;;3.82;74.97
81243;BME280;70716;50.074;14.496;2023-12-22T10:04:28;96857.84;;;3.95;74.47
81243;BME280;70716;50.074;14.496;2023-12-22T10:07:00;96869.88;;;3.97;75.11
81243;BME280;70716;50.074;14.496;2023-12-22T10:09:27;96883.38;;;3.89;74.96
81243;BME280;70716;50.074;14.496;2023-12-22T10:11:56;96869.28;;;3.83;74.54
81243;BME280;70716;50.074;14.496;2023-12-22T10:14:22;96863.28;;;3.69;75.00
81243;BME280;70716;50.074;14.496;2023-12-22T10:16:52;96856.94;;;3.56;75.40
81243;BME280;70716;50.074;14.496;2023-12-22T10:19:19;96885.78;;;3.47;75.35
81243;BME280;70716;50.074;14.496;2023-12-22T10:21:45;96894.03;;;3.34;74.83
81243;BME280;70716;50.074;14.496;2023-12-22T10:24:42;96905.28;;;3.18;74.54
81243;BME280;70716;50.074;14.496;2023-12-22T10:27:10;96925.69;;;3.11;73.91
81243;BME280;70716;50.074;14.496;2023-12-22T10:29:35;96922.66;;;3.04;74.34
81243;BME280;70716;50.074;14.496;2023-12-22T10:32:02;96931.19;;;2.80;76.32
81243;BME280;70716;50.074;14.496;2023-12-22T10:34:30;96944.69;;;2.57;78.27
81243;BME280;70716;50.074;14.496;2023-12-22T10:36:56;96947.97;;;2.46;79.74
81243;BME280;70716;50.074;14.496;2023-12-22T10:39:22;96945.16;;;2.51;80.19
81243;BME280;70716;50.074;14.496;2023-12-22T10:41:51;96924.69;;;2.41;81.52
81243;BME280;70716;50.074;14.496;2023-12-22T10:44:18;96932.94;;;2.45;81.11
81243;BME280;70716;50.074;14.496;2023-12-22T10:46:47;96936.06;;;2.38;81.33
81243;BME280;70716;50.074;14.496;2023-12-22T10:49:12;96935.44;;;2.41;81.17
81243;BME280;70716;50.074;14.496;2023-12-22T10:51:38;96931.97;;;2.41;80.73
81243;BME280;70716;50.074;14.496;2023-12-22T10:54:07;96925.19;;;2.43;79.79
81243;BME280;70716;50.074;14.496;2023-12-22T10:56:32;96945.59;;;2.44;79.40
81243;BME280;70716;50.074;14.496;2023-12-22T10:58:59;96956.47;;;2.39;79.38
81243;BME280;70716;50.074;14.496;2023-12-22T11:01:29;96970.53;;;2.36;79.48
81243;BME280;70716;50.074;14.496;2023-12-22T11:04:02;96968.63;;;2.28;80.89
81243;BME280;70716;50.074;14.496;2023-12-22T11:06:30;96974.06;;;2.14;82.59
81243;BME280;70716;50.074;14.496;2023-12-22T11:08:59;96971.94;;;2.03;83.38
81243;BME280;70716;50.074;14.496;2023-12-22T11:11:33;96981.03;;;1.93;83.75
81243;BME280;70716;50.074;14.496;2023-12-22T11:14:00;96990.13;;;1.83;84.72
81243;BME280;70716;50.074;14.496;2023-12-22T11:16:31;96977.59;;;1.79;85.09
81243;BME280;70716;50.074;14.496;2023-12-22T11:18:59;96983.16;;;1.82;85.13
81243;BME280;70716;50.074;14.496;2023-12-22T11:21:25;96986.03;;;1.86;85.20
81243;BME280;70716;50.074;14.496;2023-12-22T11:23:52;96974.81;;;1.84;85.31
81243;BME280;70716;50.074;14.496;2023-12-22T11:26:19;96971.63;;;1.82;85.35
81243;BME280;70716;50.074;14.496;2023-12-22T11:28:46;96976.03;;;1.78;85.50
81243;BME280;70716;50.074;14.496;2023-12-22T11:31:13;96974.00;;;1.83;85.99
81243;BME280;70716;50.074;14.496;2023-12-22T11:33:44;96956.97;;;1.88;85.77
81243;BME280;70716;50.074;14.496;2023-12-22T11:36:14;96983.53;;;1.89;85.87
81243;BME280;70716;50.074;14.496;2023-12-22T11:38:42;96966.50;;;1.94;86.21
81243;BME280;70716;50.074;14.496;2023-12-22T11:41:26;96954.53;;;2.00;86.04
81243;BME280;70716;50.074;14.496;2023-12-22T11:43:56;96974.88;;;2.15;85.22
81243;BME280;70716;50.074;14.496;2023-12-22T11:46:23;97004.47;;;2.23;84.84
81243;BME280;70716;50.074;14.496;2023-12-22T11:48:52;96965.88;;;2.19;84.44
81243;BME280;70716;50.074;14.496;2023-12-22T11:51:18;96965.09;;;2.19;85.18
81243;BME280;70716;50.074;14.496;2023-12-22T11:53:44;96957.19;;;2.22;84.83
81243;BME280;70716;50.074;14.496;2023-12-22T11:56:11;96960.19;;;2.21;84.80
81243;BME280;70716;50.074;14.496;2023-12-22T11:58:42;96958.00;;;2.23;85.41
81243;BME280;70716;50.074;14.496;2023-12-22T12:01:12;96939.31;;;2.18;85.29
81243;BME280;70716;50.074;14.496;2023-12-22T12:03:41;96934.72;;;2.18;85.56
81243;BME280;70716;50.074;14.496;2023-12-22T12:06:16;96930.81;;;2.33;85.18
81243;BME280;70716;50.074;14.496;2023-12-22T12:08:46;96917.13;;;2.43;85.13
81243;BME280;70716;50.074;14.496;2023-12-22T12:11:13;96914.31;;;2.57;85.22
81243;BME280;70716;50.074;14.496;2023-12-22T12:13:42;96907.22;;;2.61;84.48
81243;BME280;70716;50.074;14.496;2023-12-22T12:16:11;96889.19;;;2.61;84.18
81243;BME280;70716;50.074;14.496;2023-12-22T12:18:36;96891.09;;;2.61;84.11
81243;BME280;70716;50.074;14.496;2023-12-22T12:21:02;96875.25;;;2.59;83.59
81243;BME280;70716;50.074;14.496;2023-12-22T12:23:28;96876.00;;;2.43;84.27
81243;BME280;70716;50.074;14.496;2023-12-22T12:25:55;96871.69;;;2.33;85.09
81243;BME280;70716;50.074;14.496;2023-12-22T12:28:26;96869.66;;;2.30;85.30
81243;BME280;70716;50.074;14.496;2023-12-22T12:31:07;96871.88;;;2.28;85.16
81243;BME280;70716;50.074;14.496;2023-12-22T12:33:35;96866.44;;;2.19;84.66
81243;BME280;70716;50.074;14.496;2023-12-22T12:36:01;96876.56;;;2.22;85.36
81243;BME280;70716;50.074;14.496;2023-12-22T12:41:29;96865.91;;;2.48;83.90
81243;BME280;70716;50.074;14.496;2023-12-22T12:43:59;96855.50;;;2.64;82.50
81243;BME280;70716;50.074;14.496;2023-12-22T12:46:42;96853.00;;;2.76;80.95
81243;BME280;70716;50.074;14.496;2023-12-22T12:49:10;96858.22;;;2.90;80.53
81243;BME280;70716;50.074;14.496;2023-12-22T12:51:43;96838.13;;;3.05;79.49
81243;BME280;70716;50.074;14.496;2023-12-22T12:54:10;96838.47;;;3.12;78.61
81243;BME280;70716;50.074;14.496;2023-12-22T12:56:43;96837.66;;;3.20;77.95
81243;BME280;70716;50.074;14.496;2023-12-22T12:59:10;96839.25;;;3.29;77.86
81243;BME280;70716;50.074;14.496;2023-12-22T13:01:43;96852.25;;;3.36;77.09
81243;BME280;70716;50.074;14.496;2023-12-22T13:04:09;96840.66;;;3.44;76.14
81243;BME280;70716;50.074;14.496;2023-12-22T13:06:35;96836.19;;;3.48;76.03